Time;durP1;ratioP1;P1;durP2;ratioP2;P2;SDS_P1;SDS_P2;PMS_P1;PMS_P2;Temp;Humidity;BMP_temperature;BMP_pressure;BME280_temperature;BME280_humidity;BME280_pressure;Samples;Min_cycle;Max_cycle;Signal;HPM_P1;HPM_P2
2022/11/14 00:00:21;;;;;;;68.85;47.08;;;;;;;5.52;100.00;101151.72;2961406;78;20992;-61
2022/11/14 00:04:25;;;;;;;75.67;44.33;;;;;;;5.46;100.00;101152.47;2890228;79;21064;-61
2022/11/14 00:08:26;;;;;;;64.22;44.93;;;;;;;5.38;100.00;101147.54;2900578;79;20953;-62
2022/11/14 00:12:28;;;;;;;76.80;45.65;;;;;;;5.27;100.00;101154.63;2957815;79;20956;-59
2022/11/14 00:16:29;;;;;;;71.42;47.90;;;;;;;5.15;100.00;101154.73;2947557;78;20977;-62
2022/11/14 00:20:40;;;;;;;68.20;45.85;;;;;;;5.05;100.00;101153.42;2958477;78;21008;-61
2022/11/14 00:24:42;;;;;;;62.78;43.38;;;;;;;4.95;100.00;101153.84;2922095;80;20973;-58
2022/11/14 00:28:43;;;;;;;74.12;46.90;;;;;;;4.86;100.00;101153.78;2871860;81;21000;-60
2022/11/14 00:32:44;;;;;;;65.28;41.83;;;;;;;4.78;100.00;101149.30;2931996;79;20995;-61
2022/11/14 00:36:46;;;;;;;54.25;39.95;;;;;;;4.74;100.00;101141.61;2922848;80;20949;-59
2022/11/14 00:40:47;;;;;;;53.28;38.48;;;;;;;4.64;100.00;101155.17;2891644;80;20957;-62
2022/11/14 00:44:49;;;;;;;52.17;37.88;;;;;;;4.63;100.00;101142.08;2907647;80;21014;-63
2022/11/14 00:48:50;;;;;;;61.63;41.55;;;;;;;4.56;100.00;101138.37;2894236;79;21031;-62
2022/11/14 00:52:51;;;;;;;57.33;39.35;;;;;;;4.53;100.00;101130.59;2904982;79;21042;-60
2022/11/14 00:56:53;;;;;;;55.88;36.68;;;;;;;4.43;100.00;101132.77;2917343;80;21053;-63
2022/11/14 01:00:54;;;;;;;52.05;36.70;;;;;;;4.39;100.00;101124.61;2904879;80;20998;-60
2022/11/14 01:09:10;;;;;;;46.90;34.40;;;;;;;4.36;100.00;101118.61;2929307;79;21019;-59
2022/11/14 01:13:12;;;;;;;47.08;37.10;;;;;;;4.33;100.00;101122.25;2875352;81;21505;-60
2022/11/14 01:17:14;;;;;;;50.17;33.80;;;;;;;4.32;100.00;101112.59;2878382;79;21015;-61
2022/11/14 01:21:15;;;;;;;49.05;34.95;;;;;;;4.29;100.00;101106.15;2945477;78;21099;-59
2022/11/14 01:25:17;;;;;;;54.27;36.10;;;;;;;4.33;100.00;101098.98;2904531;80;21011;-60
2022/11/14 01:29:43;;;;;;;41.15;31.85;;;;;;;4.31;100.00;101091.13;2947607;79;21002;-58
2022/11/14 01:33:50;;;;;;;45.20;33.38;;;;;;;4.28;100.00;101086.88;2914979;80;21113;-60
2022/11/14 01:38:16;;;;;;;38.58;28.42;;;;;;;4.24;100.00;101088.37;2911540;79;21044;-63
2022/11/14 01:42:17;;;;;;;;;;;;;;;4.10;100.00;101090.28;2916251;79;21035;-60
2022/11/14 01:46:27;;;;;;;39.85;26.82;;;;;;;3.94;100.00;101077.75;2919290;79;20129;-60
2022/11/14 01:50:31;;;;;;;33.80;28.35;;;;;;;3.78;100.00;101070.08;2901530;80;21071;-62
2022/11/14 01:54:36;;;;;;;48.17;34.67;;;;;;;3.83;100.00;101055.82;2968701;77;21011;-62
2022/11/14 01:58:42;;;;;;;34.35;25.82;;;;;;;3.86;100.00;101057.00;2963552;78;21019;-59
2022/11/14 02:02:43;;;;;;;34.23;25.50;;;;;;;3.76;100.00;101052.19;2979846;79;20995;-59
2022/11/14 02:06:46;;;;;;;35.43;25.50;;;;;;;3.71;100.00;101052.36;2991534;78;21035;-61
2022/11/14 02:10:47;;;;;;;44.35;27.45;;;;;;;3.73;100.00;101050.52;2994497;78;20985;-60
2022/11/14 02:14:52;;;;;;;33.83;26.60;;;;;;;3.79;100.00;101039.77;2981440;78;21650;-62
2022/11/14 02:18:53;;;;;;;39.80;28.35;;;;;;;3.87;100.00;101032.88;3000217;77;20991;-61
2022/11/14 02:22:55;;;;;;;33.80;27.30;;;;;;;3.94;100.00;101033.48;3027064;77;20988;-63
2022/11/14 02:26:56;;;;;;;39.20;26.42;;;;;;;3.97;100.00;101028.08;2985296;79;20964;-60
2022/11/14 02:30:57;;;;;;;36.38;24.00;;;;;;;3.99;100.00;101031.50;3008177;77;21043;-60
2022/11/14 02:34:59;;;;;;;33.98;24.90;;;;;;;3.96;100.00;101031.62;2953679;78;21075;-63
2022/11/14 02:39:00;;;;;;;33.42;23.18;;;;;;;3.98;100.00;101027.16;2906394;80;21031;-59
2022/11/14 02:43:02;;;;;;;38.05;27.17;;;;;;;3.97;100.00;101019.70;2929945;79;20960;-59
2022/11/14 02:47:03;;;;;;;35.95;25.02;;;;;;;3.95;100.00;101025.97;2952286;79;20988;-58
2022/11/14 02:51:05;;;;;;;41.85;26.37;;;;;;;3.84;100.00;101018.05;2911375;79;21023;-62
2022/11/14 02:55:07;;;;;;;47.15;27.75;;;;;;;3.78;100.00;101024.89;2944089;78;20925;-60
2022/11/14 02:59:08;;;;;;;47.55;27.58;;;;;;;3.77;100.00;101024.95;2913953;79;21024;-60
2022/11/14 03:03:10;;;;;;;43.38;25.70;;;;;;;3.66;100.00;101029.34;2946412;78;21044;-59
2022/11/14 03:07:11;;;;;;;45.58;27.05;;;;;;;3.58;100.00;101017.81;2911317;78;21034;-61
2022/11/14 03:11:13;;;;;;;36.38;24.30;;;;;;;3.61;100.00;101026.05;2903911;80;21114;-59
2022/11/14 03:15:14;;;;;;;40.73;25.43;;;;;;;3.67;100.00;101016.58;2925329;79;21050;-59
2022/11/14 03:19:15;;;;;;;34.92;24.45;;;;;;;3.78;100.00;101027.53;2932306;79;20991;-63
2022/11/14 03:23:18;;;;;;;40.23;26.07;;;;;;;3.83;100.00;101021.61;2970037;79;20995;-60
2022/11/14 03:27:19;;;;;;;41.55;25.23;;;;;;;3.88;100.00;101016.16;2947325;78;21036;-61
2022/11/14 03:31:21;;;;;;;34.27;22.20;;;;;;;3.91;100.00;101024.36;2932729;77;21036;-60
2022/11/14 03:35:23;;;;;;;34.95;23.38;;;;;;;3.94;100.00;101020.31;2857487;80;20980;-59
2022/11/14 03:39:24;;;;;;;35.50;26.37;;;;;;;3.96;100.00;101025.89;2939148;80;20988;-60
2022/11/14 03:43:30;;;;;;;42.70;26.23;;;;;;;3.98;100.00;101021.89;2829993;80;21035;-60
2022/11/14 03:47:31;;;;;;;34.73;25.10;;;;;;;4.06;100.00;101012.35;2974520;78;20971;-62
2022/11/14 03:51:32;;;;;;;36.58;25.37;;;;;;;4.16;100.00;101009.70;2979743;78;21093;-59
2022/11/14 03:55:34;;;;;;;41.58;26.87;;;;;;;4.24;100.00;100998.83;2918649;80;21034;-61
2022/11/14 03:59:35;;;;;;;43.78;27.73;;;;;;;4.30;100.00;100999.87;2979308;77;21097;-61
2022/11/14 04:03:37;;;;;;;37.88;27.52;;;;;;;4.35;100.00;101004.49;2916285;79;21022;-59
2022/11/14 04:07:38;;;;;;;38.10;29.00;;;;;;;4.41;100.00;100998.07;2961477;79;20987;-59
2022/11/14 04:11:40;;;;;;;43.50;26.30;;;;;;;4.46;100.00;101000.51;2976236;77;20944;-60
2022/11/14 04:15:41;;;;;;;46.15;25.90;;;;;;;4.43;100.00;101006.31;2953948;77;21015;-59
2022/11/14 04:19:49;;;;;;;36.13;25.65;;;;;;;4.57;100.00;100995.63;2983626;77;20996;-60
2022/11/14 04:28:00;;;;;;;41.65;28.52;;;;;;;4.53;100.00;100992.74;3010677;75;20952;-60
2022/11/14 04:32:02;;;;;;;56.00;36.10;;;;;;;4.49;100.00;100992.46;3047182;75;21015;-60
2022/11/14 04:36:04;;;;;;;49.85;30.08;;;;;;;4.44;100.00;100984.79;2981117;77;21062;-59
2022/11/14 04:40:07;;;;;;;48.73;32.33;;;;;;;4.35;100.00;100979.47;3027592;76;20963;-60
2022/11/14 04:44:08;;;;;;;54.83;36.17;;;;;;;4.27;100.00;100977.17;3027576;77;20952;-61
2022/11/14 04:48:10;;;;;;;54.13;37.13;;;;;;;4.33;100.00;100976.50;3022572;77;21008;-61
2022/11/14 04:52:11;;;;;;;49.35;35.30;;;;;;;4.37;100.00;100968.40;3009275;76;20983;-60
2022/11/14 04:56:12;;;;;;;67.80;36.85;;;;;;;4.33;100.00;100958.94;3029216;75;21047;-60
2022/11/14 05:00:14;;;;;;;58.25;37.80;;;;;;;4.38;100.00;100962.20;3002824;76;21018;-61
2022/11/14 05:04:16;;;;;;;55.85;36.58;;;;;;;4.48;100.00;100960.01;3050847;76;21062;-59
2022/11/14 05:08:17;;;;;;;52.08;37.67;;;;;;;4.51;100.00;100964.27;3036573;75;21059;-59
2022/11/14 05:12:18;;;;;;;57.43;40.75;;;;;;;4.57;100.00;100966.64;3026864;76;21007;-61
2022/11/14 05:16:20;;;;;;;56.10;39.08;;;;;;;4.63;100.00;100974.25;3006898;76;21027;-59
2022/11/14 05:20:21;;;;;;;58.35;38.80;;;;;;;4.56;100.00;100970.20;3043865;75;20996;-61
2022/11/14 05:24:23;;;;;;;63.42;40.88;;;;;;;4.66;100.00;100971.95;3037574;75;20943;-60
2022/11/14 05:28:42;;;;;;;56.58;39.90;;;;;;;4.71;100.00;100976.54;3033742;76;21040;-62
2022/11/14 05:32:44;;;;;;;68.47;43.92;;;;;;;4.75;100.00;100968.03;2990926;77;21073;-61
2022/11/14 05:36:45;;;;;;;58.05;37.50;;;;;;;4.66;100.00;100970.63;3046823;76;20963;-61
2022/11/14 05:40:50;;;;;;;56.83;42.60;;;;;;;4.70;100.00;100959.02;3071166;75;21029;-60
2022/11/14 05:44:51;;;;;;;60.10;40.63;;;;;;;4.65;100.00;100971.56;3038883;76;21098;-63
2022/11/14 05:48:52;;;;;;;60.10;38.50;;;;;;;4.65;100.00;100978.16;2983473;76;21007;-60
2022/11/14 05:52:55;;;;;;;52.38;39.70;;;;;;;4.65;100.00;100969.77;3021333;76;20961;-61
2022/11/14 05:56:57;;;;;;;60.40;38.48;;;;;;;4.69;100.00;100976.59;3020053;76;20999;-62
2022/11/14 06:01:05;;;;;;;58.55;39.10;;;;;;;4.66;100.00;100970.63;3017177;76;21070;-60
2022/11/14 06:05:06;;;;;;;55.75;35.20;;;;;;;4.73;100.00;100972.05;3032206;75;21000;-62
2022/11/14 06:09:08;;;;;;;60.20;37.85;;;;;;;4.69;100.00;100966.05;3084850;75;21030;-59
2022/11/14 06:13:09;;;;;;;49.55;33.65;;;;;;;4.69;100.00;100970.01;3025195;76;20995;-60
2022/11/14 06:17:11;;;;;;;53.17;35.23;;;;;;;4.64;100.00;100965.90;3042460;77;20983;-59
2022/11/14 06:21:23;;;;;;;56.63;35.40;;;;;;;4.60;100.00;100961.22;3036813;76;20976;-59
2022/11/14 06:25:24;;;;;;;48.15;35.20;;;;;;;4.67;100.00;100964.44;3008390;77;21085;-60
2022/11/14 06:29:25;;;;;;;49.38;32.33;;;;;;;4.64;100.00;100960.15;3002401;76;20913;-62
2022/11/14 06:33:29;;;;;;;46.23;32.93;;;;;;;4.67;100.00;100964.44;2968515;77;20968;-60
2022/11/14 06:37:30;;;;;;;49.88;33.13;;;;;;;4.70;100.00;100973.52;3001063;76;21036;-60
2022/11/14 06:41:32;;;;;;;43.00;31.37;;;;;;;4.74;100.00;100955.78;3004265;77;21054;-61
2022/11/14 06:45:36;;;;;;;42.40;30.80;;;;;;;4.74;100.00;100963.22;2991804;77;20980;-64
2022/11/14 06:49:38;;;;;;;51.23;35.68;;;;;;;4.79;100.00;100963.01;3015530;76;21031;-59
2022/11/14 06:53:40;;;;;;;53.00;31.80;;;;;;;4.79;100.00;100972.23;3045287;75;21050;-59
2022/11/14 06:57:41;;;;;;;43.45;28.52;;;;;;;4.81;100.00;100964.62;3049179;76;20995;-61
2022/11/14 07:01:43;;;;;;;43.20;31.95;;;;;;;4.89;100.00;100961.63;2957925;77;20937;-59
2022/11/14 07:05:45;;;;;;;49.58;34.38;;;;;;;4.94;100.00;100959.66;3016591;76;21010;-61
2022/11/14 07:09:46;;;;;;;49.33;32.75;;;;;;;5.01;100.00;100958.87;3021433;77;21019;-60
2022/11/14 07:13:58;;;;;;;55.03;33.88;;;;;;;5.04;100.00;100962.70;3061236;75;20995;-62
2022/11/14 07:18:00;;;;;;;49.10;32.67;;;;;;;5.08;100.00;100961.63;2957948;78;21086;-59
2022/11/14 07:22:03;;;;;;;47.90;30.32;;;;;;;5.11;100.00;100959.28;2895153;78;20961;-59
2022/11/14 07:26:07;;;;;;;53.15;31.37;;;;;;;5.19;100.00;100953.19;2929459;79;21134;-59
2022/11/14 07:30:10;;;;;;;47.27;31.42;;;;;;;5.22;100.00;100955.67;2944377;79;21070;-60
2022/11/14 07:34:24;;;;;;;49.10;29.25;;;;;;;5.26;100.00;100955.91;2968330;79;20945;-62
2022/11/14 07:38:27;;;;;;;48.08;29.75;;;;;;;5.27;100.00;100945.75;2911244;80;21016;-59
2022/11/14 07:42:29;;;;;;;47.33;28.65;;;;;;;5.41;100.00;100940.27;2919418;78;21091;-60
2022/11/14 07:46:30;;;;;;;53.42;34.03;;;;;;;5.45;100.00;100945.77;2889286;77;20913;-61
2022/11/14 07:50:31;;;;;;;44.63;30.20;;;;;;;5.52;100.00;100945.00;2923281;77;21059;-59
2022/11/14 07:54:33;;;;;;;48.80;31.93;;;;;;;5.66;100.00;100953.54;2903809;77;21007;-59
2022/11/14 07:58:42;;;;;;;61.48;39.60;;;;;;;5.70;100.00;100931.36;2980605;77;20993;-60
2022/11/14 08:02:45;;;;;;;47.70;31.37;;;;;;;5.64;100.00;100926.38;2921284;79;21577;-59
2022/11/14 08:06:47;;;;;;;55.73;36.15;;;;;;;5.62;100.00;100925.59;3015945;77;20988;-62
2022/11/14 08:10:48;;;;;;;48.05;32.35;;;;;;;5.67;100.00;100926.20;3023076;76;21000;-60
2022/11/14 08:14:50;;;;;;;59.05;37.80;;;;;;;5.66;100.00;100908.21;3055150;76;21030;-59
2022/11/14 08:18:51;;;;;;;51.85;30.77;;;;;;;5.72;100.00;100905.73;2981358;77;21007;-60
2022/11/14 08:22:54;;;;;;;51.42;35.25;;;;;;;5.80;100.00;100900.05;3030272;75;21543;-59
2022/11/14 08:26:55;;;;;;;49.30;35.45;;;;;;;5.88;100.00;100902.27;3078383;76;20982;-60
2022/11/14 08:31:03;;;;;;;56.15;34.78;;;;;;;5.86;100.00;100903.20;3006229;77;21081;-59
2022/11/14 08:35:16;;;;;;;54.95;33.53;;;;;;;5.85;100.00;100900.66;2995988;75;21015;-58
2022/11/14 08:39:18;;;;;;;57.20;36.00;;;;;;;5.89;100.00;100892.96;2997161;75;20979;-61
2022/11/14 08:43:19;;;;;;;74.60;35.45;;;;;;;5.95;100.00;100895.75;2976181;76;21018;-58
2022/11/14 08:47:32;;;;;;;63.28;42.30;;;;;;;6.02;100.00;100894.52;3035495;74;21092;-61
2022/11/14 08:51:33;;;;;;;57.30;33.98;;;;;;;6.14;100.00;100889.91;3024872;77;21407;-61
2022/11/14 08:55:44;;;;;;;49.20;36.77;;;;;;;6.21;100.00;100880.32;3026228;77;21014;-58
2022/11/14 08:59:45;;;;;;;47.83;34.25;;;;;;;6.24;100.00;100875.73;3005617;77;21007;-59
2022/11/14 09:07:58;;;;;;;52.70;34.88;;;;;;;6.33;100.00;100866.45;3032858;76;20921;-62
2022/11/14 09:12:11;;;;;;;53.68;35.10;;;;;;;6.45;100.00;100862.28;3030549;77;20963;-58
2022/11/14 09:16:13;;;;;;;46.25;31.55;;;;;;;6.60;100.00;100863.20;3024048;75;20999;-60
2022/11/14 09:20:14;;;;;;;55.40;36.15;;;;;;;6.74;100.00;100871.68;2992820;77;21040;-59
2022/11/14 09:24:15;;;;;;;58.23;37.25;;;;;;;6.82;100.00;100867.28;2992753;76;21043;-59
2022/11/14 09:28:19;;;;;;;50.95;33.55;;;;;;;6.90;100.00;100867.72;3042048;76;21022;-60
2022/11/14 09:32:21;;;;;;;56.95;41.08;;;;;;;6.91;100.00;100864.13;2947059;77;21609;-62
2022/11/14 09:36:22;;;;;;;45.33;31.15;;;;;;;7.06;100.00;100861.06;2972120;77;21027;-58
2022/11/14 09:40:24;;;;;;;53.85;33.38;;;;;;;7.18;100.00;100862.14;2944797;77;21057;-59
2022/11/14 09:44:49;;;;;;;47.15;34.13;;;;;;;7.22;100.00;100862.82;2943278;79;20988;-61
2022/11/14 09:48:52;;;;;;;53.23;35.35;;;;;;;7.25;100.00;100862.15;2922520;80;21067;-59
2022/11/14 09:52:58;;;;;;;52.17;31.80;;;;;;;7.28;100.00;100856.70;2906810;80;21019;-60
2022/11/14 09:57:00;;;;;;;;;;;;;;;7.31;100.00;100845.06;2893909;79;21000;-59
2022/11/14 10:01:12;;;;;;;53.38;35.88;;;;;;;7.25;100.00;100837.02;2868592;80;20090;-60
2022/11/14 10:05:40;;;;;;;56.15;35.03;;;;;;;7.46;100.00;100835.35;2908299;78;21004;-60
2022/11/14 10:10:24;;;;;;;61.42;40.00;;;;;;;7.64;100.00;100837.83;2750427;83;21045;-58
2022/11/14 10:14:34;;;;;;;52.93;37.78;;;;;;;7.56;100.00;100830.35;2734270;85;21491;-59
2022/11/14 10:18:59;;;;;;;51.42;33.98;;;;;;;7.63;100.00;100831.70;2735805;85;21062;-61
2022/11/14 10:23:29;;;;;;;53.80;33.85;;;;;;;7.95;100.00;100829.34;2727686;85;21022;-61
2022/11/14 10:27:51;;;;;;;53.95;37.17;;;;;;;8.07;100.00;100823.28;2755589;82;72685;-88
2022/11/14 10:32:06;;;;;;;57.05;34.90;;;;;;;8.22;100.00;100828.55;2716607;84;21112;-87
2022/11/14 10:36:25;;;;;;;47.13;32.30;;;;;;;8.06;100.00;100812.31;2644213;84;21049;-87
2022/11/14 10:40:43;;;;;;;56.83;34.65;;;;;;;8.09;100.00;100811.25;2646647;87;21536;-87
2022/11/14 10:45:17;;;;;;;49.45;32.98;;;;;;;8.07;100.00;100809.17;2676388;86;21047;-88
2022/11/14 10:49:24;;;;;;;54.88;34.30;;;;;;;8.07;100.00;100802.09;2769306;83;20996;-88
2022/11/14 10:53:34;;;;;;;56.90;33.67;;;;;;;8.12;100.00;100790.72;2776653;83;21007;-88
2022/11/14 10:57:35;;;;;;;43.05;26.65;;;;;;;8.31;100.00;100790.86;2774999;83;21697;-87
2022/11/14 11:01:42;;;;;;;55.05;37.23;;;;;;;8.38;100.00;100782.05;2771544;83;21117;-88
2022/11/14 11:05:58;;;;;;;55.30;31.27;;;;;;;8.46;100.00;100777.58;2779748;82;21019;-91
2022/11/14 11:14:20;;;;;;;191.50;100.95;;;;;;;8.77;100.00;100787.50;2910932;79;20096;-91
2022/11/14 11:18:29;;;;;;;102.82;57.95;;;;;;;8.92;100.00;100786.48;2904324;79;21064;-88
2022/11/14 11:22:35;;;;;;;57.38;34.92;;;;;;;9.03;100.00;100769.84;2940652;79;21495;-92
2022/11/14 11:26:36;;;;;;;56.63;35.17;;;;;;;8.99;100.00;100761.23;2892521;80;20991;-90
2022/11/14 11:30:38;;;;;;;53.13;37.08;;;;;;;9.22;100.00;100749.52;2904943;79;21060;-91
2022/11/14 11:34:40;;;;;;;75.67;39.85;;;;;;;9.27;100.00;100756.70;2914743;79;21531;-90
2022/11/14 11:38:41;;;;;;;58.40;41.20;;;;;;;9.49;100.00;100748.58;2900429;80;21102;-90
2022/11/14 11:42:57;;;;;;;50.08;33.18;;;;;;;9.69;100.00;100750.30;2883516;80;21043;-91
2022/11/14 11:47:02;;;;;;;46.87;37.33;;;;;;;9.81;100.00;100746.76;2880285;79;21568;-92
2022/11/14 11:51:06;;;;;;;45.48;33.05;;;;;;;9.93;100.00;100735.75;2848899;80;21456;-90
2022/11/14 11:55:16;;;;;;;48.55;33.90;;;;;;;10.04;100.00;100734.11;2804299;81;21067;-91
2022/11/14 11:59:39;;;;;;;46.23;31.68;;;;;;;10.15;100.00;100719.58;2828124;81;21099;-91
2022/11/14 12:03:48;;;;;;;53.73;34.58;;;;;;;10.28;100.00;100712.87;2839605;82;21579;-91
2022/11/14 12:08:12;;;;;;;49.03;35.48;;;;;;;10.41;100.00;100711.50;2839284;81;21055;-92
2022/11/14 12:12:46;;;;;;;50.00;31.42;;;;;;;10.48;100.00;100707.91;2826427;81;22203;-89
2022/11/14 12:17:36;;;;;;;48.65;34.10;;;;;;;10.65;100.00;100713.28;2826524;82;21008;-91
2022/11/14 12:22:01;;;;;;;50.17;31.77;;;;;;;10.79;100.00;100698.92;2817482;81;21084;-91
2022/11/14 12:26:43;;;;;;;43.38;29.52;;;;;;;10.88;100.00;100695.58;2839461;82;20987;-92
2022/11/14 12:30:52;;;;;;;48.10;34.25;;;;;;;10.98;100.00;100689.89;2884539;80;21087;-92
2022/11/14 12:34:54;;;;;;;52.65;36.30;;;;;;;11.07;100.00;100696.81;2865130;80;21028;-90
2022/11/14 12:38:57;;;;;;;44.13;31.73;;;;;;;11.20;100.00;100694.05;2873433;80;20987;-92
2022/11/14 12:43:01;;;;;;;99.65;64.87;;;;;;;11.26;100.00;100694.88;2902575;80;21549;-91
2022/11/14 12:47:08;;;;;;;50.90;32.85;;;;;;;11.12;100.00;100679.99;2895868;80;21526;-91
2022/11/14 12:51:27;;;;;;;41.68;28.92;;;;;;;11.08;100.00;100680.70;2912104;79;21099;-92
2022/11/14 12:55:34;;;;;;;40.23;28.23;;;;;;;11.14;100.00;100678.05;2764699;83;21052;-89
2022/11/14 12:59:40;;;;;;;39.75;29.18;;;;;;;11.18;100.00;100684.00;2730792;85;21123;-91
2022/11/14 13:04:21;;;;;;;44.53;30.08;;;;;;;11.21;100.00;100687.28;2700185;86;21176;-91
2022/11/14 13:08:46;;;;;;;44.80;31.75;;;;;;;11.18;100.00;100676.84;2708931;85;21622;-91
2022/11/14 13:22:16;;;;;;;55.00;39.58;;;;;;;11.24;100.00;100667.06;2780357;83;21047;-89
2022/11/14 13:26:22;;;;;;;76.95;47.98;;;;;;;11.25;100.00;100653.24;2761072;83;21036;-90
2022/11/14 13:31:18;;;;;;;47.88;29.20;;;;;;;11.31;100.00;100649.25;2834700;80;21538;-89
2022/11/14 13:35:43;;;;;;;34.60;26.07;;;;;;;11.28;100.00;100649.00;2863513;80;21045;-90
2022/11/14 13:39:58;;;;;;;41.80;29.52;;;;;;;11.35;100.00;100650.70;2891340;80;21031;-90
2022/11/14 13:44:17;;;;;;;38.87;29.90;;;;;;;11.45;100.00;100636.16;2889390;79;21832;-90
2022/11/14 13:48:48;;;;;;;48.05;33.58;;;;;;;11.61;100.00;100625.97;2846283;80;21033;-89
2022/11/14 13:52:50;;;;;;;42.73;29.57;;;;;;;11.66;100.00;100625.61;2902026;80;21059;-89
2022/11/14 13:57:18;;;;;;;59.50;35.75;;;;;;;11.76;100.00;100626.53;2907573;79;21614;-88
2022/11/14 14:02:06;;;;;;;52.60;34.63;;;;;;;11.82;100.00;100624.72;2736463;84;21027;-90
2022/11/14 14:06:19;;;;;;;42.93;32.05;;;;;;;11.86;100.00;100620.83;2678488;86;21089;-90
2022/11/14 14:10:28;;;;;;;63.63;39.45;;;;;;;11.87;100.00;100616.32;2784112;83;21030;-90
2022/11/14 14:15:01;;;;;;;62.17;38.20;;;;;;;11.79;100.00;100623.64;2767726;83;21048;-89
2022/11/14 14:19:23;;;;;;;61.48;34.35;;;;;;;11.77;100.00;100613.56;2758956;83;20995;-89
2022/11/14 14:23:50;;;;;;;53.87;35.63;;;;;;;11.68;100.00;100605.00;2770982;83;21628;-89
2022/11/14 14:28:12;;;;;;;43.13;30.77;;;;;;;11.67;100.00;100599.31;2751587;83;20991;-89
2022/11/14 14:32:17;;;;;;;54.77;36.28;;;;;;;11.65;100.00;100594.09;2774990;82;21768;-88
2022/11/14 14:36:24;;;;;;;86.57;54.75;;;;;;;11.56;100.00;100589.53;2808048;80;21058;-89
2022/11/14 14:40:32;;;;;;;60.17;38.13;;;;;;;11.47;100.00;100577.81;2888772;80;21425;-88
2022/11/14 14:44:39;;;;;;;52.70;37.60;;;;;;;11.42;100.00;100568.85;2880167;80;21015;-88
2022/11/14 14:48:44;;;;;;;41.40;31.00;;;;;;;11.41;100.00;100569.82;2902330;80;21072;-88
2022/11/14 14:52:48;;;;;;;40.00;29.72;;;;;;;11.28;99.24;100576.63;2887058;79;21613;-88
2022/11/14 14:56:59;;;;;;;46.20;31.48;;;;;;;11.18;98.80;100579.66;2883626;80;21040;-88
2022/11/14 15:01:15;;;;;;;41.53;30.20;;;;;;;11.09;99.02;100585.73;2887698;79;21004;-89
2022/11/14 15:05:28;;;;;;;45.28;30.15;;;;;;;10.97;99.12;100580.89;2848131;80;20980;-88
2022/11/14 15:09:30;;;;;;;46.37;31.30;;;;;;;10.88;99.10;100575.81;2902183;80;21031;-89
2022/11/14 15:13:34;;;;;;;49.67;36.23;;;;;;;10.83;100.00;100571.34;2875979;80;20999;-90
2022/11/14 15:17:35;;;;;;;47.60;32.55;;;;;;;10.80;100.00;100568.42;2823971;81;21065;-89
2022/11/14 15:21:37;;;;;;;44.65;33.23;;;;;;;10.82;100.00;100564.33;2879540;80;21020;-88
2022/11/14 15:25:39;;;;;;;45.15;30.80;;;;;;;10.81;100.00;100563.97;2879118;80;21690;-87
2022/11/14 15:29:56;;;;;;;49.88;33.53;;;;;;;10.78;100.00;100558.39;2890895;80;21039;-87
2022/11/14 15:34:05;;;;;;;49.18;36.17;;;;;;;10.69;100.00;100561.28;2891020;79;21049;-87
2022/11/14 15:38:16;;;;;;;47.40;33.25;;;;;;;10.66;99.83;100564.66;2892096;80;21016;-87
2022/11/14 15:42:32;;;;;;;48.15;37.03;;;;;;;10.53;100.00;100562.11;2887083;80;21027;-88
2022/11/14 15:46:44;;;;;;;54.13;39.08;;;;;;;10.22;100.00;100557.77;2905398;79;21015;-86
2022/11/14 15:50:50;;;;;;;57.65;37.10;;;;;;;9.68;100.00;100546.23;2889483;79;21039;-88
2022/11/14 15:54:52;;;;;;;60.90;39.55;;;;;;;9.39;100.00;100543.92;2845812;81;21043;-88
2022/11/14 15:58:53;;;;;;;57.55;41.15;;;;;;;9.18;100.00;100540.17;2745940;81;21023;-88
2022/11/14 16:02:58;;;;;;;89.15;55.05;;;;;;;9.09;100.00;100540.36;2822360;82;21032;-88
2022/11/14 16:07:00;;;;;;;111.67;76.33;;;;;;;8.95;100.00;100532.06;2891333;79;21754;-87
2022/11/14 16:11:03;;;;;;;90.22;59.50;;;;;;;8.84;100.00;100529.67;2903611;80;21044;-87
2022/11/14 16:15:06;;;;;;;74.45;48.38;;;;;;;8.80;100.00;100524.69;2843689;79;21517;-87
2022/11/14 16:19:12;;;;;;;62.05;41.18;;;;;;;8.73;100.00;100524.27;2899154;80;21018;-88
2022/11/14 16:23:14;;;;;;;62.05;42.35;;;;;;;8.79;100.00;100521.67;2858348;79;20983;-88
2022/11/14 16:27:16;;;;;;;59.05;40.78;;;;;;;8.85;100.00;100522.58;2825790;80;21589;-87
2022/11/14 16:31:19;;;;;;;53.98;37.03;;;;;;;8.90;100.00;100520.44;2899293;79;20995;-88
2022/11/14 16:35:24;;;;;;;56.50;36.80;;;;;;;8.95;100.00;100524.10;2779507;83;21013;-88
2022/11/14 16:39:30;;;;;;;53.92;37.05;;;;;;;8.83;100.00;100529.77;2850459;81;21618;-87
2022/11/14 16:43:32;;;;;;;60.23;42.03;;;;;;;8.80;100.00;100532.64;2876155;80;21091;-90
2022/11/14 16:47:34;;;;;;;56.45;37.67;;;;;;;8.78;100.00;100535.42;2829860;80;21684;-89
2022/11/14 16:51:35;;;;;;;53.65;37.45;;;;;;;8.75;100.00;100530.80;2847783;80;21004;-89
2022/11/14 16:55:37;;;;;;;60.20;39.08;;;;;;;8.73;100.00;100528.25;2848689;80;21037;-88
2022/11/14 16:59:39;;;;;;;53.02;41.77;;;;;;;8.71;100.00;100534.14;2847303;79;21000;-88
2022/11/14 17:03:41;;;;;;;58.55;40.03;;;;;;;8.64;100.00;100539.52;2885500;79;21069;-89
2022/11/14 17:07:44;;;;;;;63.50;42.80;;;;;;;8.66;100.00;100543.77;2874880;80;21029;-88
2022/11/14 17:11:45;;;;;;;106.27;70.22;;;;;;;8.60;100.00;100537.55;2896338;80;21122;-88
2022/11/14 17:15:47;;;;;;;74.90;46.95;;;;;;;8.61;100.00;100528.63;2869451;79;21078;-88
2022/11/14 17:19:48;;;;;;;57.85;38.80;;;;;;;8.57;100.00;100528.48;2874378;80;21845;-87
2022/11/14 17:23:56;;;;;;;68.02;44.93;;;;;;;8.51;100.00;100526.27;2887410;80;21083;-87
2022/11/14 17:27:57;;;;;;;64.27;47.80;;;;;;;8.52;100.00;100525.31;2875501;80;21032;-87
2022/11/14 17:31:59;;;;;;;59.63;43.33;;;;;;;8.39;100.00;100516.84;2809011;81;21064;-88
2022/11/14 17:36:08;;;;;;;57.55;41.88;;;;;;;8.35;100.00;100510.52;2886292;80;40773;-87
2022/11/14 17:40:10;;;;;;;60.23;41.48;;;;;;;8.40;100.00;100521.19;2890760;80;21047;-87
2022/11/14 17:44:12;;;;;;;56.98;42.40;;;;;;;8.38;100.00;100533.70;2890206;80;21023;-88
2022/11/14 17:48:13;;;;;;;65.60;46.15;;;;;;;8.24;100.00;100525.84;2879013;80;21005;-87
2022/11/14 17:52:15;;;;;;;49.18;38.08;;;;;;;8.12;100.00;100516.46;2931481;79;21038;-87
2022/11/14 18:00:26;;;;;;;67.80;49.60;;;;;;;8.01;100.00;100518.98;2978297;76;21139;-87
2022/11/14 18:04:29;;;;;;;61.98;38.92;;;;;;;8.09;100.00;100518.46;2959408;76;21160;-87
2022/11/14 18:08:32;;;;;;;59.60;39.00;;;;;;;8.23;100.00;100524.14;3003125;76;21059;-88
2022/11/14 18:12:33;;;;;;;52.45;36.58;;;;;;;8.38;100.00;100520.44;2942386;77;21477;-88
2022/11/14 18:16:34;;;;;;;67.58;44.33;;;;;;;8.47;100.00;100520.28;3012393;76;21003;-89
2022/11/14 18:20:37;;;;;;;91.65;53.73;;;;;;;8.28;100.00;100506.14;3010777;77;20987;-88
2022/11/14 18:24:42;;;;;;;76.40;44.70;;;;;;;7.96;100.00;100496.80;2953396;77;21389;-88
2022/11/14 18:28:42;;;;;;;61.98;43.35;;;;;;;7.83;100.00;100502.53;2900153;78;21096;-89
2022/11/14 18:32:43;;;;;;;64.77;45.43;;;;;;;7.88;100.00;100502.23;2955304;79;21138;-88
2022/11/14 18:36:45;;;;;;;63.38;44.83;;;;;;;7.96;100.00;100501.23;2984372;77;21042;-88
2022/11/14 18:40:47;;;;;;;67.00;45.43;;;;;;;8.07;100.00;100495.20;2960096;77;21061;-87
2022/11/14 18:44:48;;;;;;;65.05;40.85;;;;;;;8.09;100.00;100490.18;2963562;76;21581;-86
2022/11/14 18:49:00;;;;;;;69.75;46.40;;;;;;;8.02;100.00;100488.05;3004091;77;21147;-87
2022/11/14 18:52:58;;;;;;;72.15;45.70;;;;;;;8.12;100.00;100491.30;2983839;77;21828;-88
2022/11/14 18:57:00;;;;;;;74.47;48.98;;;;;;;8.25;100.00;100491.75;2955010;79;21014;-86
2022/11/14 19:01:22;;;;;;;97.88;58.78;;;;;;;8.37;100.00;100494.89;2779899;80;20976;-87
2022/11/14 19:05:23;;;;;;;58.08;41.68;;;;;;;8.33;100.00;100489.44;2879755;80;21015;-86
2022/11/14 19:09:24;;;;;;;56.08;38.88;;;;;;;8.22;100.00;100473.42;2879683;80;21592;-86